sensor_id;sensor_type;location;lat;lon;timestamp;temperature;humidity
4820;DHT22;2424;49.696;6.630;2023-03-01T00:04:49;-0.80;99.90
4820;DHT22;2424;49.696;6.630;2023-03-01T00:10:12;-0.90;99.90
4820;DHT22;2424;49.696;6.630;2023-03-01T00:15:38;-0.90;99.90
4820;DHT22;2424;49.696;6.630;2023-03-01T00:21:01;-1.00;99.90
4820;DHT22;2424;49.696;6.630;2023-03-01T00:26:25;-1.10;99.90
4820;DHT22;2424;49.696;6.630;2023-03-01T00:31:47;-1.20;99.90
4820;DHT22;2424;49.696;6.630;2023-03-01T00:37:09;-1.10;99.90
4820;DHT22;2424;49.696;6.630;2023-03-01T00:42:32;-1.20;99.90
4820;DHT22;2424;49.696;6.630;2023-03-01T00:47:54;-1.20;99.90
4820;DHT22;2424;49.696;6.630;2023-03-01T00:53:16;-1.30;99.90
4820;DHT22;2424;49.696;6.630;2023-03-01T00:58:40;-1.30;99.90
4820;DHT22;2424;49.696;6.630;2023-03-01T01:04:04;-1.30;99.90
4820;DHT22;2424;49.696;6.630;2023-03-01T01:09:26;-1.30;99.90
4820;DHT22;2424;49.696;6.630;2023-03-01T01:14:49;-1.30;99.90
4820;DHT22;2424;49.696;6.630;2023-03-01T01:20:12;-1.30;99.90
4820;DHT22;2424;49.696;6.630;2023-03-01T01:25:35;-1.30;99.90
4820;DHT22;2424;49.696;6.630;2023-03-01T01:30:59;-1.30;99.90
4820;DHT22;2424;49.696;6.630;2023-03-01T01:36:21;-1.30;99.90
4820;DHT22;2424;49.696;6.630;2023-03-01T01:41:43;-1.40;99.90
4820;DHT22;2424;49.696;6.630;2023-03-01T01:47:12;-1.50;99.90
4820;DHT22;2424;49.696;6.630;2023-03-01T01:52:36;-1.70;99.90
4820;DHT22;2424;49.696;6.630;2023-03-01T01:58:02;-1.60;99.90
4820;DHT22;2424;49.696;6.630;2023-03-01T02:03:29;-1.70;99.90
4820;DHT22;2424;49.696;6.630;2023-03-01T02:08:53;-1.70;99.90
4820;DHT22;2424;49.696;6.630;2023-03-01T02:14:18;-1.90;99.90
4820;DHT22;2424;49.696;6.630;2023-03-01T02:19:51;-1.80;99.90
4820;DHT22;2424;49.696;6.630;2023-03-01T02:25:27;-1.80;99.90
4820;DHT22;2424;49.696;6.630;2023-03-01T02:30:53;-1.80;99.90
4820;DHT22;2424;49.696;6.630;2023-03-01T02:36:36;-1.90;99.90
4820;DHT22;2424;49.696;6.630;2023-03-01T02:41:58;-1.90;99.90
4820;DHT22;2424;49.696;6.630;2023-03-01T02:47:22;-2.00;99.90
4820;DHT22;2424;49.696;6.630;2023-03-01T02:52:46;-2.00;99.90
4820;DHT22;2424;49.696;6.630;2023-03-01T02:58:10;-2.00;99.90
4820;DHT22;2424;49.696;6.630;2023-03-01T03:03:33;-2.10;99.90
4820;DHT22;2424;49.696;6.630;2023-03-01T03:08:55;-2.00;99.90
4820;DHT22;2424;49.696;6.630;2023-03-01T03:14:17;-1.90;99.90
4820;DHT22;2424;49.696;6.630;2023-03-01T03:19:40;-1.90;99.90
4820;DHT22;2424;49.696;6.630;2023-03-01T03:25:06;-1.80;99.90
4820;DHT22;2424;49.696;6.630;2023-03-01T03:30:31;-1.90;99.90
4820;DHT22;2424;49.696;6.630;2023-03-01T03:35:54;-1.90;99.90
4820;DHT22;2424;49.696;6.630;2023-03-01T03:41:17;-1.90;99.90
4820;DHT22;2424;49.696;6.630;2023-03-01T03:46:39;-1.90;99.90
4820;DHT22;2424;49.696;6.630;2023-03-01T03:52:02;-1.90;99.90
4820;DHT22;2424;49.696;6.630;2023-03-01T03:57:24;-1.90;99.90
4820;DHT22;2424;49.696;6.630;2023-03-01T04:02:47;-2.00;99.90
4820;DHT22;2424;49.696;6.630;2023-03-01T04:08:11;-2.00;99.90
4820;DHT22;2424;49.696;6.630;2023-03-01T04:13:33;-2.10;99.90
4820;DHT22;2424;49.696;6.630;2023-03-01T04:18:55;-2.10;99.90
4820;DHT22;2424;49.696;6.630;2023-03-01T04:24:21;-2.10;99.90
4820;DHT22;2424;49.696;6.630;2023-03-01T04:29:43;-1.90;99.90
4820;DHT22;2424;49.696;6.630;2023-03-01T04:35:05;-1.80;99.90
4820;DHT22;2424;49.696;6.630;2023-03-01T04:40:29;-1.70;99.90
4820;DHT22;2424;49.696;6.630;2023-03-01T04:45:51;-1.70;99.90
4820;DHT22;2424;49.696;6.630;2023-03-01T04:51:13;-1.70;99.90
4820;DHT22;2424;49.696;6.630;2023-03-01T04:56:37;-1.60;99.90
4820;DHT22;2424;49.696;6.630;2023-03-01T05:01:59;-1.70;99.90
4820;DHT22;2424;49.696;6.630;2023-03-01T05:07:21;-1.70;99.90
4820;DHT22;2424;49.696;6.630;2023-03-01T05:12:46;-1.80;99.90
4820;DHT22;2424;49.696;6.630;2023-03-01T05:18:08;-1.80;99.90
4820;DHT22;2424;49.696;6.630;2023-03-01T05:23:32;-1.80;99.90
4820;DHT22;2424;49.696;6.630;2023-03-01T05:28:56;-1.80;99.90
4820;DHT22;2424;49.696;6.630;2023-03-01T05:34:19;-1.80;99.90
4820;DHT22;2424;49.696;6.630;2023-03-01T05:39:43;-1.80;99.90
4820;DHT22;2424;49.696;6.630;2023-03-01T05:45:07;-1.80;99.90
4820;DHT22;2424;49.696;6.630;2023-03-01T05:50:33;-1.80;99.90
4820;DHT22;2424;49.696;6.630;2023-03-01T05:55:55;-1.80;99.90
4820;DHT22;2424;49.696;6.630;2023-03-01T06:01:18;-1.90;99.90
4820;DHT22;2424;49.696;6.630;2023-03-01T06:06:40;-1.90;99.90
4820;DHT22;2424;49.696;6.630;2023-03-01T06:12:02;-1.90;99.90
4820;DHT22;2424;49.696;6.630;2023-03-01T06:17:29;-1.80;99.90
4820;DHT22;2424;49.696;6.630;2023-03-01T06:22:51;-1.80;99.90
4820;DHT22;2424;49.696;6.630;2023-03-01T06:28:13;-1.80;99.90
4820;DHT22;2424;49.696;6.630;2023-03-01T06:33:37;-1.80;99.90
4820;DHT22;2424;49.696;6.630;2023-03-01T06:38:59;-1.80;99.90
4820;DHT22;2424;49.696;6.630;2023-03-01T06:44:21;-1.70;99.90
4820;DHT22;2424;49.696;6.630;2023-03-01T06:49:44;-1.70;99.90
4820;DHT22;2424;49.696;6.630;2023-03-01T06:55:07;-1.70;99.90
4820;DHT22;2424;49.696;6.630;2023-03-01T07:00:29;-1.70;99.90
4820;DHT22;2424;49.696;6.630;2023-03-01T07:05:52;-1.60;99.90
4820;DHT22;2424;49.696;6.630;2023-03-01T07:11:15;-1.60;99.90
4820;DHT22;2424;49.696;6.630;2023-03-01T07:16:37;-1.60;99.90
4820;DHT22;2424;49.696;6.630;2023-03-01T07:22:00;-1.50;99.90
4820;DHT22;2424;49.696;6.630;2023-03-01T07:27:22;-1.60;99.90
4820;DHT22;2424;49.696;6.630;2023-03-01T07:32:44;-1.50;99.90
4820;DHT22;2424;49.696;6.630;2023-03-01T07:38:08;-1.50;99.90
4820;DHT22;2424;49.696;6.630;2023-03-01T07:43:30;-1.40;99.90
4820;DHT22;2424;49.696;6.630;2023-03-01T07:48:52;-1.40;99.90
4820;DHT22;2424;49.696;6.630;2023-03-01T07:54:16;-1.40;99.90
4820;DHT22;2424;49.696;6.630;2023-03-01T07:59:38;-1.30;99.90
4820;DHT22;2424;49.696;6.630;2023-03-01T08:05:00;-1.30;99.90
4820;DHT22;2424;49.696;6.630;2023-03-01T08:10:23;-1.30;99.90
4820;DHT22;2424;49.696;6.630;2023-03-01T08:15:45;-1.20;99.90
4820;DHT22;2424;49.696;6.630;2023-03-01T08:21:09;-1.10;99.90
4820;DHT22;2424;49.696;6.630;2023-03-01T08:26:33;-1.00;99.90
4820;DHT22;2424;49.696;6.630;2023-03-01T08:31:55;-1.00;99.90
4820;DHT22;2424;49.696;6.630;2023-03-01T08:37:17;-0.90;99.90
4820;DHT22;2424;49.696;6.630;2023-03-01T08:42:41;-0.80;99.90
4820;DHT22;2424;49.696;6.630;2023-03-01T08:48:03;-0.70;99.90
4820;DHT22;2424;49.696;6.630;2023-03-01T08:53:25;-0.60;99.90
4820;DHT22;2424;49.696;6.630;2023-03-01T08:58:49;-0.50;99.90
4820;DHT22;2424;49.696;6.630;2023-03-01T09:04:11;-0.30;99.90
4820;DHT22;2424;49.696;6.630;2023-03-01T09:09:34;-0.20;99.90
4820;DHT22;2424;49.696;6.630;2023-03-01T09:14:57;-0.10;99.90
4820;DHT22;2424;49.696;6.630;2023-03-01T09:20:19;0.00;99.90
4820;DHT22;2424;49.696;6.630;2023-03-01T09:25:41;0.20;99.90
4820;DHT22;2424;49.696;6.630;2023-03-01T09:31:05;0.20;99.90
4820;DHT22;2424;49.696;6.630;2023-03-01T09:36:27;0.30;99.90
4820;DHT22;2424;49.696;6.630;2023-03-01T09:41:53;0.50;99.90
4820;DHT22;2424;49.696;6.630;2023-03-01T09:47:21;0.60;99.90
4820;DHT22;2424;49.696;6.630;2023-03-01T09:52:47;0.90;99.90
4820;DHT22;2424;49.696;6.630;2023-03-01T09:58:31;1.00;99.90
4820;DHT22;2424;49.696;6.630;2023-03-01T10:04:05;1.20;99.90
4820;DHT22;2424;49.696;6.630;2023-03-01T10:09:34;1.40;99.90
4820;DHT22;2424;49.696;6.630;2023-03-01T10:15:00;1.50;99.90
4820;DHT22;2424;49.696;6.630;2023-03-01T10:20:28;1.50;99.90
4820;DHT22;2424;49.696;6.630;2023-03-01T10:26:12;1.60;99.90
4820;DHT22;2424;49.696;6.630;2023-03-01T10:31:41;1.80;99.90
4820;DHT22;2424;49.696;6.630;2023-03-01T10:37:11;1.80;99.90
4820;DHT22;2424;49.696;6.630;2023-03-01T10:42:36;1.90;99.90
4820;DHT22;2424;49.696;6.630;2023-03-01T10:48:11;2.10;99.90
4820;DHT22;2424;49.696;6.630;2023-03-01T10:53:36;2.10;99.90
4820;DHT22;2424;49.696;6.630;2023-03-01T10:59:00;2.30;99.90
4820;DHT22;2424;49.696;6.630;2023-03-01T11:04:22;2.30;99.90
4820;DHT22;2424;49.696;6.630;2023-03-01T11:09:45;2.50;99.90
4820;DHT22;2424;49.696;6.630;2023-03-01T11:15:20;2.60;99.90
4820;DHT22;2424;49.696;6.630;2023-03-01T11:20:43;2.80;99.90
4820;DHT22;2424;49.696;6.630;2023-03-01T11:26:08;2.90;99.90
4820;DHT22;2424;49.696;6.630;2023-03-01T11:31:31;3.00;99.90
4820;DHT22;2424;49.696;6.630;2023-03-01T11:36:56;3.30;99.90
4820;DHT22;2424;49.696;6.630;2023-03-01T11:42:28;3.50;99.90
4820;DHT22;2424;49.696;6.630;2023-03-01T11:48:01;3.50;99.90
4820;DHT22;2424;49.696;6.630;2023-03-01T11:53:47;3.70;99.90
4820;DHT22;2424;49.696;6.630;2023-03-01T12:05:29;4.00;99.90
4820;DHT22;2424;49.696;6.630;2023-03-01T12:11:04;4.00;99.90
4820;DHT22;2424;49.696;6.630;2023-03-01T12:16:40;4.30;99.90
4820;DHT22;2424;49.696;6.630;2023-03-01T12:22:23;4.60;99.90
4820;DHT22;2424;49.696;6.630;2023-03-01T12:28:06;4.90;99.90
4820;DHT22;2424;49.696;6.630;2023-03-01T12:33:38;5.20;99.90
4820;DHT22;2424;49.696;6.630;2023-03-01T12:39:17;5.30;99.90
4820;DHT22;2424;49.696;6.630;2023-03-01T12:45:02;5.60;99.90
4820;DHT22;2424;49.696;6.630;2023-03-01T12:50:36;5.50;99.90
4820;DHT22;2424;49.696;6.630;2023-03-01T12:56:01;5.80;99.90
4820;DHT22;2424;49.696;6.630;2023-03-01T13:01:38;6.20;99.90
4820;DHT22;2424;49.696;6.630;2023-03-01T13:07:15;6.40;99.90
4820;DHT22;2424;49.696;6.630;2023-03-01T13:12:53;6.50;99.90
4820;DHT22;2424;49.696;6.630;2023-03-01T13:18:29;6.80;99.90
4820;DHT22;2424;49.696;6.630;2023-03-01T13:23:52;6.90;99.90
4820;DHT22;2424;49.696;6.630;2023-03-01T13:29:26;6.70;99.90
4820;DHT22;2424;49.696;6.630;2023-03-01T13:34:53;7.00;99.90
4820;DHT22;2424;49.696;6.630;2023-03-01T13:46:20;7.10;99.90
4820;DHT22;2424;49.696;6.630;2023-03-01T13:51:46;7.00;99.90
4820;DHT22;2424;49.696;6.630;2023-03-01T13:57:19;7.00;99.90
4820;DHT22;2424;49.696;6.630;2023-03-01T14:02:44;7.30;99.90
4820;DHT22;2424;49.696;6.630;2023-03-01T14:08:18;7.50;99.90
4820;DHT22;2424;49.696;6.630;2023-03-01T14:19:35;7.60;99.90
4820;DHT22;2424;49.696;6.630;2023-03-01T14:24:59;7.60;99.90
4820;DHT22;2424;49.696;6.630;2023-03-01T14:30:25;7.80;99.90
4820;DHT22;2424;49.696;6.630;2023-03-01T14:35:58;8.00;99.90
4820;DHT22;2424;49.696;6.630;2023-03-01T14:41:23;8.40;99.90
4820;DHT22;2424;49.696;6.630;2023-03-01T14:46:45;8.40;99.90
4820;DHT22;2424;49.696;6.630;2023-03-01T14:52:18;8.70;99.90
4820;DHT22;2424;49.696;6.630;2023-03-01T14:57:43;8.70;99.90
4820;DHT22;2424;49.696;6.630;2023-03-01T15:03:08;8.80;99.90
4820;DHT22;2424;49.696;6.630;2023-03-01T15:08:35;9.10;99.90
4820;DHT22;2424;49.696;6.630;2023-03-01T15:13:59;9.00;99.10
4820;DHT22;2424;49.696;6.630;2023-03-01T15:19:23;8.50;97.80
4820;DHT22;2424;49.696;6.630;2023-03-01T15:24:49;8.90;98.70
4820;DHT22;2424;49.696;6.630;2023-03-01T15:30:18;9.20;99.20
4820;DHT22;2424;49.696;6.630;2023-03-01T15:35:45;9.20;98.60
4820;DHT22;2424;49.696;6.630;2023-03-01T15:41:24;8.90;98.00
4820;DHT22;2424;49.696;6.630;2023-03-01T15:46:47;8.60;96.40
4820;DHT22;2424;49.696;6.630;2023-03-01T15:52:12;8.70;97.50
4820;DHT22;2424;49.696;6.630;2023-03-01T15:57:36;8.60;97.20
4820;DHT22;2424;49.696;6.630;2023-03-01T16:02:58;8.50;96.60
4820;DHT22;2424;49.696;6.630;2023-03-01T16:08:20;8.60;97.60
4820;DHT22;2424;49.696;6.630;2023-03-01T16:13:44;8.40;97.00
4820;DHT22;2424;49.696;6.630;2023-03-01T16:19:06;8.20;96.90
4820;DHT22;2424;49.696;6.630;2023-03-01T16:24:28;8.10;96.20
4820;DHT22;2424;49.696;6.630;2023-03-01T16:29:52;8.20;97.00
4820;DHT22;2424;49.696;6.630;2023-03-01T16:35:15;8.40;96.00
4820;DHT22;2424;49.696;6.630;2023-03-01T16:40:38;8.10;95.50
4820;DHT22;2424;49.696;6.630;2023-03-01T16:46:01;7.90;95.80
4820;DHT22;2424;49.696;6.630;2023-03-01T16:51:25;7.90;96.00
4820;DHT22;2424;49.696;6.630;2023-03-01T16:56:47;8.20;95.90
4820;DHT22;2424;49.696;6.630;2023-03-01T17:02:11;8.60;95.10
4820;DHT22;2424;49.696;6.630;2023-03-01T17:07:33;8.40;94.50
4820;DHT22;2424;49.696;6.630;2023-03-01T17:12:55;8.00;94.00
4820;DHT22;2424;49.696;6.630;2023-03-01T17:18:18;7.40;94.70
4820;DHT22;2424;49.696;6.630;2023-03-01T17:23:43;7.00;95.60
4820;DHT22;2424;49.696;6.630;2023-03-01T17:29:06;6.70;96.10
4820;DHT22;2424;49.696;6.630;2023-03-01T17:34:30;6.40;97.00
4820;DHT22;2424;49.696;6.630;2023-03-01T17:39:53;6.20;97.50
4820;DHT22;2424;49.696;6.630;2023-03-01T17:45:15;5.80;97.30
4820;DHT22;2424;49.696;6.630;2023-03-01T17:50:38;5.70;97.50
4820;DHT22;2424;49.696;6.630;2023-03-01T17:56:02;5.50;97.80
4820;DHT22;2424;49.696;6.630;2023-03-01T18:01:26;5.30;97.70
4820;DHT22;2424;49.696;6.630;2023-03-01T18:06:49;5.20;98.10
4820;DHT22;2424;49.696;6.630;2023-03-01T18:12:11;4.90;98.40
4820;DHT22;2424;49.696;6.630;2023-03-01T18:17:33;4.90;97.80
4820;DHT22;2424;49.696;6.630;2023-03-01T18:22:56;4.80;98.60
4820;DHT22;2424;49.696;6.630;2023-03-01T18:28:18;4.70;98.10
4820;DHT22;2424;49.696;6.630;2023-03-01T18:33:40;4.40;98.10
4820;DHT22;2424;49.696;6.630;2023-03-01T18:39:05;4.60;97.90
4820;DHT22;2424;49.696;6.630;2023-03-01T18:44:27;4.60;97.20
4820;DHT22;2424;49.696;6.630;2023-03-01T18:49:52;4.60;97.40
4820;DHT22;2424;49.696;6.630;2023-03-01T18:55:15;4.60;97.30
4820;DHT22;2424;49.696;6.630;2023-03-01T19:00:37;4.60;97.50
4820;DHT22;2424;49.696;6.630;2023-03-01T19:05:59;4.50;97.90
4820;DHT22;2424;49.696;6.630;2023-03-01T19:11:23;4.40;97.80
4820;DHT22;2424;49.696;6.630;2023-03-01T19:16:46;4.40;98.30
4820;DHT22;2424;49.696;6.630;2023-03-01T19:22:08;4.20;98.00
4820;DHT22;2424;49.696;6.630;2023-03-01T19:27:32;4.20;98.60
4820;DHT22;2424;49.696;6.630;2023-03-01T19:32:55;3.90;99.80
4820;DHT22;2424;49.696;6.630;2023-03-01T19:38:16;3.70;99.50
4820;DHT22;2424;49.696;6.630;2023-03-01T19:43:40;3.70;99.30
4820;DHT22;2424;49.696;6.630;2023-03-01T19:49:03;3.50;99.90
4820;DHT22;2424;49.696;6.630;2023-03-01T19:54:25;3.40;99.90
4820;DHT22;2424;49.696;6.630;2023-03-01T19:59:48;3.30;99.90
4820;DHT22;2424;49.696;6.630;2023-03-01T20:05:10;3.10;99.90
4820;DHT22;2424;49.696;6.630;2023-03-01T20:10:33;3.20;99.90
4820;DHT22;2424;49.696;6.630;2023-03-01T20:15:57;3.10;99.90
4820;DHT22;2424;49.696;6.630;2023-03-01T20:21:19;2.90;99.90
4820;DHT22;2424;49.696;6.630;2023-03-01T20:26:41;2.90;99.90
4820;DHT22;2424;49.696;6.630;2023-03-01T20:32:04;2.60;99.90
4820;DHT22;2424;49.696;6.630;2023-03-01T20:37:26;2.40;99.90
4820;DHT22;2424;49.696;6.630;2023-03-01T20:42:48;2.40;99.90
4820;DHT22;2424;49.696;6.630;2023-03-01T20:48:11;2.30;99.90
4820;DHT22;2424;49.696;6.630;2023-03-01T20:53:35;2.20;99.90
4820;DHT22;2424;49.696;6.630;2023-03-01T20:58:57;2.20;99.90
4820;DHT22;2424;49.696;6.630;2023-03-01T21:04:20;2.10;99.90
4820;DHT22;2424;49.696;6.630;2023-03-01T21:09:42;2.00;99.90
4820;DHT22;2424;49.696;6.630;2023-03-01T21:15:05;2.00;99.90
4820;DHT22;2424;49.696;6.630;2023-03-01T21:20:28;2.00;99.90
4820;DHT22;2424;49.696;6.630;2023-03-01T21:25:59;1.90;99.90
4820;DHT22;2424;49.696;6.630;2023-03-01T21:31:22;1.80;99.90
4820;DHT22;2424;49.696;6.630;2023-03-01T21:36:48;1.70;99.90
4820;DHT22;2424;49.696;6.630;2023-03-01T21:42:10;1.60;99.90
4820;DHT22;2424;49.696;6.630;2023-03-01T21:47:32;1.60;99.90
4820;DHT22;2424;49.696;6.630;2023-03-01T21:52:56;1.50;99.90
4820;DHT22;2424;49.696;6.630;2023-03-01T21:58:19;1.40;99.90
4820;DHT22;2424;49.696;6.630;2023-03-01T22:03:41;1.50;99.90
4820;DHT22;2424;49.696;6.630;2023-03-01T22:09:08;1.70;99.90
4820;DHT22;2424;49.696;6.630;2023-03-01T22:14:32;1.80;99.90
4820;DHT22;2424;49.696;6.630;2023-03-01T22:19:54;1.90;99.90
4820;DHT22;2424;49.696;6.630;2023-03-01T22:25:18;1.90;99.90
4820;DHT22;2424;49.696;6.630;2023-03-01T22:30:39;1.80;99.90
4820;DHT22;2424;49.696;6.630;2023-03-01T22:36:02;1.70;99.90
4820;DHT22;2424;49.696;6.630;2023-03-01T22:41:26;1.60;99.90
4820;DHT22;2424;49.696;6.630;2023-03-01T22:46:49;1.50;99.90
4820;DHT22;2424;49.696;6.630;2023-03-01T22:52:11;1.50;99.90
4820;DHT22;2424;49.696;6.630;2023-03-01T22:57:34;1.40;99.90
4820;DHT22;2424;49.696;6.630;2023-03-01T23:02:56;1.40;99.90
4820;DHT22;2424;49.696;6.630;2023-03-01T23:08:18;1.30;99.90
4820;DHT22;2424;49.696;6.630;2023-03-01T23:13:41;1.30;99.90
4820;DHT22;2424;49.696;6.630;2023-03-01T23:19:04;1.40;99.90
4820;DHT22;2424;49.696;6.630;2023-03-01T23:24:26;1.10;99.90
4820;DHT22;2424;49.696;6.630;2023-03-01T23:29:52;1.10;99.90
4820;DHT22;2424;49.696;6.630;2023-03-01T23:35:14;1.00;99.90
4820;DHT22;2424;49.696;6.630;2023-03-01T23:40:37;1.00;99.90
4820;DHT22;2424;49.696;6.630;2023-03-01T23:46:00;1.00;99.90
4820;DHT22;2424;49.696;6.630;2023-03-01T23:51:23;0.90;99.90
4820;DHT22;2424;49.696;6.630;2023-03-01T23:56:45;0.80;99.90
